Balaguer, Spain

1:37 AM CET en Enero 23, 2019 (GMT +0100)
Balaguer | | Change Station

Alt 764 ft 41.78 °N, 0.82 °E | Updated 7 minutes ago

Parcialmente nublado
Parcialmente nublado
32.5 ° F
Sensación térmica 32 ° F
N
0
Viento Variable Viento desde ESE
Gusts 0.0 mph

Hoy
Alta -- | Baja -- ° F
--% Posibilidad de precipitaciones
Ayer
Alta -- | Baja -- ° F
Precip. -- pul
Presión 29.68 pul
Visibilidad 6.2 Millas
Nubes Baja 1300 ft
Vientos helados 32 ° F
Punto de rocío 31 ° F
Humedad 95%
Precipitaciones 0.00 pul
Espesor de la nieve No disponible.
8:17 AM 6:00 PM
Gibosa menguante, 95% visible
METAR LEDA 230030Z AUTO 28011KT 9999 FEW013/// 02/01 Q1005
Presión 29.68 pul
Visibilidad 6.2 Millas
Nubes Baja 1300 ft
Vientos helados 32 ° F
Punto de rocío 31 ° F
Humedad 95%
Precipitaciones 0.00 pul
Espesor de la nieve No disponible.
8:17 AM 6:00 PM
Gibosa menguante, 95% visible
METAR LEDA 230030Z AUTO 28011KT 9999 FEW013/// 02/01 Q1005

Get Severe Weather Alerts

Thanks for signing up!

Be on the lookout for a verification email in your inbox.

You'll start receiving the daily forecast at 6 AM.

×

10-Day Weather Forecast

×

Almanac

Astronomía

Jan. 23, 2019 Salida Puesta
Hora real
Crepúsculo civil
Crepúsculo náutico
Crepúsculo astronómico
Luna
Horas de luz
Horas de luz
Tomorrow will be .
, % of the Moon is Illuminated

Extremos de hoy

Máximos del país Bajas del país

Community

WunderPhotos

Category 6

Welcome to Category 6. This is the collective home for Weather Underground's featured writeups by Dr. Jeff Masters (right), Bob Henson (left), Chris Burt, and other regular contributors.

Nearby

Calidad del aire

  Calidad del aire Índice AQ Contaminante
Not available.

Grosos de nieve

Estación Profundido Altura

Actividad de terremotos

Ciudad Distance Mag. Tiempo y dato
Magnitud mínima muestra es 2,5.

Temperaturas de aguas costeras

Lugar Temperatura

Stations

Estaciones meteorológicas cercanas

Ubicación de la estación Temp. Vientos helados Punto de rocío Humedad Viento Precip. Alt Actualizado Tipo